Time;durP1;ratioP1;P1;durP2;ratioP2;P2;SDS_P1;SDS_P2;PMS_P1;PMS_P2;Temp;Humidity;BMP_temperature;BMP_pressure;BME280_temperature;BME280_humidity;BME280_pressure;Samples;Min_cycle;Max_cycle;Signal;HPM_P1;HPM_P2
2023/04/30 00:00:09;;;;;;;8.60;6.33;;;13.50;28.70;;;;;;5045624;28;20462;-67
2023/04/30 00:02:36;;;;;;;9.30;6.50;;;13.50;28.60;;;;;;5046149;28;20848;-67
2023/04/30 00:05:02;;;;;;;9.30;6.40;;;13.50;28.50;;;;;;5040474;28;20461;-68
2023/04/30 00:07:29;;;;;;;8.10;5.20;;;13.50;28.40;;;;;;5042738;28;20474;-67
2023/04/30 00:09:56;;;;;;;8.47;5.73;;;13.50;28.50;;;;;;5044573;28;21012;-67
2023/04/30 00:12:23;;;;;;;8.70;5.90;;;13.50;28.60;;;;;;5043214;28;20485;-67
2023/04/30 00:14:50;;;;;;;8.00;5.20;;;13.40;28.80;;;;;;5041312;28;21679;-67
2023/04/30 00:17:18;;;;;;;7.90;5.10;;;13.40;29.00;;;;;;5044828;28;20473;-67
2023/04/30 00:19:44;;;;;;;8.70;5.53;;;13.40;29.00;;;;;;5042647;28;20465;-67
2023/04/30 00:22:11;;;;;;;10.33;6.20;;;13.40;29.00;;;;;;5042185;28;20462;-68
2023/04/30 00:24:38;;;;;;;9.50;5.23;;;13.40;28.90;;;;;;5044335;28;21157;-67
2023/04/30 00:27:04;;;;;;;10.47;6.07;;;13.30;29.10;;;;;;5044081;28;21036;-68
2023/04/30 00:29:31;;;;;;;10.43;6.57;;;13.30;29.20;;;;;;5044767;28;20514;-67
2023/04/30 00:31:58;;;;;;;9.17;5.80;;;13.30;29.30;;;;;;5044176;28;20512;-68
2023/04/30 00:34:26;;;;;;;8.20;4.93;;;13.20;29.40;;;;;;5042697;28;20934;-67
2023/04/30 00:36:52;;;;;;;9.97;5.83;;;13.20;29.50;;;;;;5040645;28;20518;-68
2023/04/30 00:39:19;;;;;;;8.47;5.43;;;13.20;29.60;;;;;;5046555;28;20478;-68
2023/04/30 00:41:46;;;;;;;8.00;5.23;;;13.20;29.60;;;;;;5044812;28;20477;-67
2023/04/30 00:44:13;;;;;;;8.13;5.10;;;13.20;29.90;;;;;;5043028;28;20493;-68
2023/04/30 00:46:39;;;;;;;9.40;5.50;;;13.20;29.50;;;;;;5038056;28;20748;-67
2023/04/30 00:49:06;;;;;;;8.40;4.70;;;13.20;29.60;;;;;;5044556;28;20520;-68
2023/04/30 00:51:35;;;;;;;7.50;5.07;;;13.20;29.50;;;;;;5044752;28;20457;-67
2023/04/30 00:54:03;;;;;;;10.10;5.33;;;13.20;29.60;;;;;;5040691;28;20480;-68
2023/04/30 00:56:31;;;;;;;9.27;5.33;;;13.20;29.60;;;;;;5039248;28;20463;-67
2023/04/30 00:58:58;;;;;;;8.90;5.57;;;13.20;29.70;;;;;;5038239;28;20482;-67
2023/04/30 01:01:25;;;;;;;10.23;5.73;;;13.20;29.60;;;;;;5037489;28;20819;-68
2023/04/30 01:03:52;;;;;;;9.00;6.50;;;13.10;29.80;;;;;;5043794;28;20465;-67
2023/04/30 01:06:18;;;;;;;8.20;5.70;;;13.10;29.90;;;;;;5043875;28;20466;-68
2023/04/30 01:08:48;;;;;;;8.70;6.60;;;13.10;30.30;;;;;;5039032;28;21577;-67
2023/04/30 01:11:24;;;;;;;11.00;6.17;;;13.10;30.30;;;;;;5040301;28;21298;-67
2023/04/30 01:13:59;;;;;;;9.40;5.97;;;13.10;30.60;;;;;;5042254;28;20507;-67
2023/04/30 01:16:30;;;;;;;10.13;6.33;;;13.10;30.60;;;;;;5039126;28;20465;-68
2023/04/30 01:19:02;;;;;;;10.10;6.37;;;13.10;30.50;;;;;;5043967;28;20488;-68
2023/04/30 01:21:32;;;;;;;9.00;6.00;;;13.10;30.80;;;;;;5042913;28;20548;-67
2023/04/30 01:24:24;;;;;;;9.50;6.20;;;13.00;31.00;;;;;;5042513;28;20472;-67
2023/04/30 01:27:11;;;;;;;8.63;5.43;;;13.00;31.20;;;;;;5044886;28;20517;-67
2023/04/30 01:29:41;;;;;;;9.03;5.47;;;12.90;31.20;;;;;;5038771;28;20494;-67
2023/04/30 01:32:10;;;;;;;8.60;6.10;;;12.90;31.10;;;;;;5042059;28;20465;-67
2023/04/30 01:34:37;;;;;;;8.27;5.80;;;12.80;31.40;;;;;;5038091;28;20482;-68
2023/04/30 01:37:16;;;;;;;11.63;6.50;;;12.80;31.40;;;;;;5043587;28;20465;-67
2023/04/30 01:40:09;;;;;;;12.13;6.50;;;12.70;32.20;;;;;;5037333;28;20482;-67
2023/04/30 01:42:45;;;;;;;9.40;6.17;;;12.70;32.00;;;;;;5037349;28;20462;-67
2023/04/30 01:45:28;;;;;;;11.93;7.50;;;12.60;32.00;;;;;;5036438;28;20466;-68
2023/04/30 01:48:07;;;;;;;11.37;7.20;;;12.60;32.30;;;;;;5041003;28;20508;-67
2023/04/30 01:50:38;;;;;;;11.13;7.50;;;12.50;32.40;;;;;;5043302;28;20485;-68
2023/04/30 01:53:09;;;;;;;10.40;6.70;;;12.50;32.40;;;;;;5043963;28;20577;-67
2023/04/30 01:55:39;;;;;;;9.40;7.10;;;12.50;32.60;;;;;;5037131;28;20466;-68
2023/04/30 01:58:10;;;;;;;10.27;6.50;;;12.50;32.70;;;;;;5039036;28;20494;-67
2023/04/30 02:00:38;;;;;;;9.70;6.23;;;12.50;32.90;;;;;;5041000;28;20473;-67
2023/04/30 02:03:05;;;;;;;10.00;6.30;;;12.50;32.90;;;;;;5041602;28;20467;-67
2023/04/30 02:05:31;;;;;;;11.40;7.50;;;12.50;32.90;;;;;;5039221;28;20465;-67
2023/04/30 02:07:58;;;;;;;9.10;6.23;;;12.50;32.90;;;;;;5038821;28;20484;-67
2023/04/30 02:10:26;;;;;;;9.13;6.67;;;12.50;32.90;;;;;;5040965;28;20490;-67
2023/04/30 02:12:53;;;;;;;10.20;6.97;;;12.50;33.10;;;;;;5044641;28;20492;-67
2023/04/30 02:15:20;;;;;;;12.53;6.73;;;12.50;32.90;;;;;;5046769;28;20492;-68
2023/04/30 02:17:48;;;;;;;9.70;6.37;;;12.50;33.00;;;;;;5047726;28;20481;-67
2023/04/30 02:20:15;;;;;;;8.87;6.07;;;12.40;32.90;;;;;;5042254;28;20463;-67
2023/04/30 02:22:41;;;;;;;10.30;6.17;;;12.40;32.90;;;;;;5048743;28;20474;-67
2023/04/30 02:25:11;;;;;;;9.83;7.23;;;12.40;32.90;;;;;;5041539;28;20462;-67
2023/04/30 02:27:38;;;;;;;10.43;6.80;;;12.40;33.10;;;;;;5044241;28;20458;-67
2023/04/30 02:30:06;;;;;;;9.10;6.40;;;12.40;33.10;;;;;;5046044;28;20477;-67
2023/04/30 02:32:32;;;;;;;11.23;7.00;;;12.40;33.10;;;;;;5044203;28;20603;-67
2023/04/30 02:35:01;;;;;;;10.10;6.07;;;12.30;33.20;;;;;;5039463;28;20458;-67
2023/04/30 02:37:27;;;;;;;12.00;6.57;;;12.30;33.30;;;;;;5042132;28;20497;-67
2023/04/30 02:39:54;;;;;;;9.83;6.30;;;12.30;33.50;;;;;;5047057;28;20458;-67
2023/04/30 02:42:21;;;;;;;10.77;6.70;;;12.30;33.60;;;;;;5043362;28;20466;-67
2023/04/30 02:44:48;;;;;;;11.80;6.87;;;12.30;33.50;;;;;;5045573;28;20472;-67
2023/04/30 02:47:15;;;;;;;9.73;6.33;;;12.30;33.50;;;;;;5043754;28;20473;-67
2023/04/30 02:49:41;;;;;;;14.10;7.37;;;12.20;33.40;;;;;;5044122;28;21071;-67
2023/04/30 02:52:09;;;;;;;12.43;6.90;;;12.10;33.50;;;;;;5046206;28;20468;-67
2023/04/30 02:54:36;;;;;;;10.40;6.87;;;12.10;33.60;;;;;;5040807;28;20462;-67
2023/04/30 02:57:03;;;;;;;13.40;7.27;;;12.10;33.60;;;;;;5059746;22;20442;-66
2023/04/30 02:59:30;;;;;;;10.83;6.80;;;12.10;33.60;;;;;;5039790;28;20496;-68
2023/04/30 03:01:57;;;;;;;9.50;6.60;;;12.00;33.70;;;;;;5047956;28;21019;-67
2023/04/30 03:04:23;;;;;;;11.30;6.73;;;12.00;33.90;;;;;;5047394;28;20470;-67
2023/04/30 03:06:50;;;;;;;10.47;6.83;;;12.00;33.90;;;;;;5047716;28;20462;-67
2023/04/30 03:09:18;;;;;;;11.37;7.17;;;12.00;34.20;;;;;;5040855;28;20511;-67
2023/04/30 03:11:45;;;;;;;10.40;6.87;;;11.90;34.20;;;;;;5045320;28;20470;-67
2023/04/30 03:14:12;;;;;;;10.97;7.33;;;11.90;34.10;;;;;;5048876;28;20490;-67
2023/04/30 03:16:38;;;;;;;11.53;7.60;;;11.90;34.10;;;;;;5044452;28;20479;-67
2023/04/30 03:19:05;;;;;;;11.67;6.93;;;11.90;34.00;;;;;;5044999;28;20486;-67
2023/04/30 03:21:32;;;;;;;12.83;8.20;;;11.80;34.10;;;;;;5053071;28;20469;-66
2023/04/30 03:23:59;;;;;;;12.30;8.00;;;11.80;34.40;;;;;;5049166;28;20563;-68
2023/04/30 03:26:27;;;;;;;10.27;6.63;;;11.80;34.40;;;;;;5048838;28;20468;-66
2023/04/30 03:28:54;;;;;;;11.93;7.70;;;11.80;34.40;;;;;;5046883;28;20478;-67
2023/04/30 03:31:21;;;;;;;12.60;8.30;;;11.80;34.60;;;;;;5050874;28;20555;-67
2023/04/30 03:33:48;;;;;;;15.70;7.90;;;11.70;34.50;;;;;;5046716;28;20946;-66
2023/04/30 03:36:15;;;;;;;13.50;7.77;;;11.80;34.50;;;;;;5048713;28;20597;-67
2023/04/30 03:38:42;;;;;;;14.27;8.23;;;11.70;34.50;;;;;;5050394;28;20572;-67
2023/04/30 03:41:08;;;;;;;13.20;8.87;;;11.70;34.60;;;;;;5045475;28;20490;-66
2023/04/30 03:43:36;;;;;;;12.40;7.60;;;11.80;34.60;;;;;;5063624;28;20462;-67
2023/04/30 03:46:03;;;;;;;10.70;7.30;;;11.80;34.60;;;;;;5058321;28;20465;-66
2023/04/30 03:48:30;;;;;;;14.27;9.77;;;11.80;34.50;;;;;;5046760;28;20991;-67
2023/04/30 03:50:57;;;;;;;13.10;8.03;;;11.80;34.50;;;;;;5039986;28;20478;-67
2023/04/30 03:53:25;;;;;;;16.43;8.90;;;11.80;34.50;;;;;;5044838;28;20470;-67
2023/04/30 03:55:53;;;;;;;13.07;8.43;;;11.80;34.50;;;;;;5045577;28;20561;-66
2023/04/30 03:58:19;;;;;;;13.93;8.40;;;11.80;34.30;;;;;;5043892;28;20497;-67
2023/04/30 04:00:48;;;;;;;16.40;10.13;;;11.90;34.50;;;;;;5045434;28;20473;-67
2023/04/30 04:03:15;;;;;;;14.27;8.93;;;11.90;34.60;;;;;;5047108;28;22501;-67
2023/04/30 04:05:42;;;;;;;13.47;8.77;;;11.90;34.40;;;;;;5045658;28;20539;-67
2023/04/30 04:08:09;;;;;;;15.40;9.37;;;11.90;34.50;;;;;;5041210;28;20559;-66
2023/04/30 04:10:36;;;;;;;15.17;9.60;;;11.90;34.50;;;;;;5047487;28;20509;-66
2023/04/30 04:13:03;;;;;;;13.37;8.70;;;11.90;34.60;;;;;;5049066;28;20462;-67
2023/04/30 04:15:30;;;;;;;12.80;8.70;;;11.90;34.70;;;;;;5045279;28;20500;-66
2023/04/30 04:17:58;;;;;;;12.60;9.17;;;11.80;34.70;;;;;;5046236;28;20851;-66
2023/04/30 04:20:25;;;;;;;14.00;8.50;;;11.80;34.80;;;;;;5044076;28;20462;-66
2023/04/30 04:22:51;;;;;;;15.50;9.40;;;11.90;35.00;;;;;;5036320;28;20832;-66
2023/04/30 04:25:19;;;;;;;14.80;8.40;;;11.90;35.00;;;;;;5046552;28;20466;-67
2023/04/30 04:27:46;;;;;;;14.97;8.80;;;11.90;34.90;;;;;;5043931;28;21020;-66
2023/04/30 04:30:13;;;;;;;13.43;9.90;;;11.90;34.90;;;;;;5041629;28;20486;-66
2023/04/30 04:32:45;;;;;;;14.00;9.73;;;11.90;35.00;;;;;;5046919;28;20524;-66
2023/04/30 04:35:13;;;;;;;13.03;8.60;;;11.90;35.00;;;;;;5042129;28;20805;-67
2023/04/30 04:37:40;;;;;;;14.37;8.73;;;11.90;35.10;;;;;;5048732;28;21046;-66
2023/04/30 04:40:10;;;;;;;14.60;9.30;;;11.90;35.10;;;;;;5047535;28;20465;-68
2023/04/30 04:42:37;;;;;;;14.47;9.57;;;11.90;35.20;;;;;;5046439;28;20465;-66
2023/04/30 04:45:06;;;;;;;13.30;8.80;;;11.90;35.20;;;;;;5046749;28;20465;-66
2023/04/30 04:47:32;;;;;;;14.97;9.93;;;11.90;35.20;;;;;;5043840;28;20470;-66
2023/04/30 04:49:59;;;;;;;16.57;10.00;;;11.90;35.10;;;;;;5043219;28;20482;-67
2023/04/30 04:52:27;;;;;;;13.47;9.20;;;11.90;34.90;;;;;;5043997;28;20545;-66
2023/04/30 04:54:54;;;;;;;14.40;10.00;;;11.90;35.00;;;;;;5044454;28;20836;-66
2023/04/30 04:57:21;;;;;;;15.40;9.60;;;12.00;35.10;;;;;;5046886;28;20473;-67
2023/04/30 04:59:47;;;;;;;14.53;9.53;;;12.00;34.90;;;;;;5045552;28;20468;-66
2023/04/30 05:02:14;;;;;;;13.93;9.13;;;12.00;34.80;;;;;;5047381;28;20985;-66
2023/04/30 05:04:41;;;;;;;14.77;10.03;;;12.00;34.80;;;;;;5043948;28;20473;-67
2023/04/30 05:07:08;;;;;;;13.97;9.40;;;12.10;34.90;;;;;;5041344;28;20489;-67
2023/04/30 05:09:36;;;;;;;15.47;10.00;;;12.10;34.90;;;;;;5046359;28;20985;-67
2023/04/30 05:12:02;;;;;;;14.73;9.80;;;12.10;34.80;;;;;;5042173;28;20465;-67
2023/04/30 05:14:29;;;;;;;15.40;10.60;;;12.20;34.60;;;;;;5046321;28;20890;-67
2023/04/30 05:16:56;;;;;;;27.10;10.70;;;12.20;34.70;;;;;;5044948;28;20489;-67
2023/04/30 05:19:22;;;;;;;14.47;10.17;;;12.20;34.40;;;;;;5044684;28;20509;-67
2023/04/30 05:21:50;;;;;;;12.63;8.40;;;12.30;34.50;;;;;;5036789;28;21037;-67
2023/04/30 05:24:16;;;;;;;14.40;9.77;;;12.20;34.50;;;;;;5045434;28;20468;-67
2023/04/30 05:26:44;;;;;;;14.10;10.57;;;12.30;34.50;;;;;;5045348;28;20493;-68
2023/04/30 05:29:11;;;;;;;17.33;10.30;;;12.30;34.60;;;;;;5045577;28;20494;-67
2023/04/30 05:31:38;;;;;;;16.50;10.90;;;12.40;34.50;;;;;;5042579;28;20897;-67
2023/04/30 05:34:05;;;;;;;14.33;9.80;;;12.40;34.20;;;;;;5036696;28;20478;-67
2023/04/30 05:36:31;;;;;;;13.93;7.90;;;12.40;33.90;;;;;;5043011;28;20469;-67
2023/04/30 05:38:58;;;;;;;12.77;10.10;;;12.50;34.10;;;;;;5042989;28;20518;-68
2023/04/30 05:41:25;;;;;;;12.60;9.80;;;12.50;34.10;;;;;;5045145;28;20454;-67
2023/04/30 05:43:53;;;;;;;14.70;9.57;;;12.50;34.10;;;;;;5047855;28;20973;-67
2023/04/30 05:46:20;;;;;;;13.70;9.73;;;12.40;34.10;;;;;;5048027;28;20465;-67
2023/04/30 05:48:47;;;;;;;16.70;11.37;;;12.40;34.00;;;;;;5047905;28;20497;-68
2023/04/30 05:51:13;;;;;;;15.50;9.93;;;12.40;34.20;;;;;;5046112;28;20493;-67
2023/04/30 05:53:40;;;;;;;15.93;10.83;;;12.40;34.10;;;;;;5048746;28;20501;-67
2023/04/30 05:56:07;;;;;;;13.77;9.37;;;12.40;34.10;;;;;;5048886;28;20454;-65
2023/04/30 05:58:34;;;;;;;14.30;8.67;;;12.50;34.20;;;;;;5051310;28;20528;-64
2023/04/30 06:01:02;;;;;;;16.27;10.10;;;12.50;34.60;;;;;;5050153;28;20485;-65
2023/04/30 06:03:29;;;;;;;15.60;10.33;;;12.50;33.90;;;;;;5049536;28;21097;-65
2023/04/30 06:05:56;;;;;;;11.70;9.10;;;12.60;33.60;;;;;;5048076;28;20470;-65
2023/04/30 06:08:22;;;;;;;14.83;9.43;;;12.60;33.50;;;;;;5050450;28;20965;-65
2023/04/30 06:10:50;;;;;;;11.70;8.03;;;12.70;33.00;;;;;;5049746;28;20869;-64
2023/04/30 06:13:17;;;;;;;13.00;9.47;;;12.80;32.80;;;;;;5048594;28;20458;-66
2023/04/30 06:15:44;;;;;;;12.50;9.33;;;12.90;32.50;;;;;;5042127;28;20462;-66
2023/04/30 06:18:13;;;;;;;16.03;10.77;;;13.00;32.30;;;;;;5050393;28;20508;-65
2023/04/30 06:20:39;;;;;;;11.73;8.80;;;13.10;31.80;;;;;;5047584;28;20502;-65
2023/04/30 06:23:06;;;;;;;13.07;9.23;;;13.20;31.40;;;;;;5048740;28;20462;-65
2023/04/30 06:25:33;;;;;;;11.20;8.33;;;13.20;31.10;;;;;;5044615;28;20473;-65
2023/04/30 06:28:00;;;;;;;11.40;8.57;;;13.30;31.00;;;;;;5047090;28;20490;-65
2023/04/30 06:30:27;;;;;;;14.27;9.83;;;13.40;30.30;;;;;;5047344;28;20489;-66
2023/04/30 06:32:54;;;;;;;10.80;8.27;;;13.50;29.50;;;;;;5050177;28;20470;-65
2023/04/30 06:35:22;;;;;;;13.33;9.47;;;13.50;28.90;;;;;;5048504;28;20470;-65
2023/04/30 06:37:49;;;;;;;12.47;8.93;;;13.50;28.50;;;;;;5051073;28;20493;-65
2023/04/30 06:40:15;;;;;;;10.67;8.37;;;13.60;28.00;;;;;;5049940;28;20953;-65
2023/04/30 06:42:42;;;;;;;12.30;9.10;;;13.60;27.00;;;;;;5050674;28;20470;-65
2023/04/30 06:45:11;;;;;;;14.20;8.73;;;13.70;27.00;;;;;;5044266;28;20786;-65
2023/04/30 06:47:37;;;;;;;14.40;8.90;;;13.60;26.20;;;;;;5051380;28;20465;-65
2023/04/30 06:50:05;;;;;;;12.33;9.60;;;13.50;26.50;;;;;;5051608;28;20462;-66
2023/04/30 06:52:33;;;;;;;11.07;7.90;;;13.50;26.60;;;;;;5046223;28;20473;-65
2023/04/30 06:55:00;;;;;;;11.53;9.40;;;13.50;26.90;;;;;;5048229;28;20467;-65
2023/04/30 06:57:26;;;;;;;11.70;7.97;;;13.70;26.80;;;;;;5046921;28;20481;-65
2023/04/30 06:59:53;;;;;;;11.90;8.90;;;13.70;25.30;;;;;;5050066;28;20961;-65
2023/04/30 07:02:21;;;;;;;13.73;8.90;;;13.80;25.30;;;;;;5047625;28;20481;-64
2023/04/30 07:04:48;;;;;;;13.37;9.00;;;13.80;24.60;;;;;;5045379;28;20511;-66
2023/04/30 07:07:14;;;;;;;11.37;8.90;;;13.90;24.10;;;;;;5050314;28;20462;-66
2023/04/30 07:09:43;;;;;;;10.97;7.63;;;14.00;23.60;;;;;;5049817;28;20477;-66
2023/04/30 07:12:12;;;;;;;11.90;9.07;;;14.10;22.70;;;;;;5048527;28;20493;-65
2023/04/30 07:14:39;;;;;;;11.40;9.03;;;14.20;22.50;;;;;;5036921;28;20476;-65
2023/04/30 07:17:06;;;;;;;13.53;8.97;;;14.40;21.90;;;;;;5050262;28;20974;-65
2023/04/30 07:19:32;;;;;;;15.57;8.73;;;14.60;21.20;;;;;;5044929;28;20489;-65
2023/04/30 07:21:59;;;;;;;11.83;8.40;;;14.80;19.70;;;;;;5034923;28;21375;-65
2023/04/30 07:24:26;;;;;;;11.97;8.70;;;15.00;19.50;;;;;;5043112;28;20474;-65
2023/04/30 07:26:54;;;;;;;11.17;8.50;;;15.30;19.00;;;;;;5042360;28;20466;-66
2023/04/30 07:29:21;;;;;;;10.57;8.00;;;15.70;18.20;;;;;;5041733;28;20504;-65
2023/04/30 07:31:48;;;;;;;11.00;8.13;;;16.10;17.80;;;;;;5043090;28;20489;-68
2023/04/30 07:34:15;;;;;;;11.93;7.07;;;16.70;17.10;;;;;;5044953;28;20804;-69
2023/04/30 07:36:42;;;;;;;8.90;7.00;;;17.20;15.10;;;;;;5048273;28;20477;-68
2023/04/30 07:39:10;;;;;;;10.67;7.23;;;17.90;14.00;;;;;;5042342;28;20478;-69
2023/04/30 07:41:37;;;;;;;9.27;7.20;;;18.60;12.20;;;;;;5046737;28;20516;-69
2023/04/30 07:44:05;;;;;;;9.23;6.77;;;19.10;10.60;;;;;;5049732;28;21752;-69
2023/04/30 07:46:32;;;;;;;8.33;6.30;;;19.70;9.90;;;;;;5046729;28;20464;-69
2023/04/30 07:48:59;;;;;;;8.80;6.60;;;20.80;7.40;;;;;;5049589;28;20486;-70
2023/04/30 07:51:26;;;;;;;7.87;6.00;;;22.00;4.90;;;;;;5047824;28;20482;-70
2023/04/30 07:53:53;;;;;;;8.93;6.40;;;23.70;3.00;;;;;;5047209;28;20481;-66
2023/04/30 07:56:20;;;;;;;8.37;5.87;;;25.00;1.00;;;;;;5049734;28;20473;-66
2023/04/30 07:58:47;;;;;;;9.10;5.73;;;25.80;1.00;;;;;;5047503;28;20573;-65
2023/04/30 08:01:15;;;;;;;7.63;5.73;;;26.40;1.00;;;;;;5050085;28;20462;-67
2023/04/30 08:03:42;;;;;;;7.43;5.03;;;27.00;1.00;;;;;;5039289;28;20466;-67
2023/04/30 08:06:09;;;;;;;7.63;5.70;;;27.40;1.00;;;;;;5052500;28;20473;-68
2023/04/30 08:08:35;;;;;;;7.03;5.17;;;27.60;1.00;;;;;;5050543;28;20488;-69
2023/04/30 08:11:02;;;;;;;7.70;6.00;;;27.80;1.00;;;;;;5041653;28;20474;-68
2023/04/30 08:13:29;;;;;;;7.17;4.97;;;27.80;1.00;;;;;;5045938;28;21015;-67
2023/04/30 08:15:56;;;;;;;9.87;5.97;;;27.80;1.00;;;;;;5041980;28;20466;-68
2023/04/30 08:18:24;;;;;;;7.00;5.83;;;27.60;1.00;;;;;;5044000;28;20544;-69
2023/04/30 08:20:51;;;;;;;8.10;5.13;;;27.60;1.00;;;;;;5046796;28;20467;-67
2023/04/30 08:23:18;;;;;;;6.67;4.60;;;28.10;1.00;;;;;;5043504;28;20477;-68
2023/04/30 08:25:45;;;;;;;8.27;5.30;;;30.60;1.00;;;;;;5036649;28;20470;-68
2023/04/30 08:28:13;;;;;;;6.53;5.10;;;32.20;1.00;;;;;;5042798;28;20887;-67
2023/04/30 08:30:39;;;;;;;7.53;6.03;;;34.00;1.00;;;;;;5040567;28;20474;-67
2023/04/30 08:33:06;;;;;;;8.80;5.47;;;36.40;1.00;;;;;;5045181;28;20466;-69
2023/04/30 08:35:35;;;;;;;6.53;4.37;;;38.00;1.00;;;;;;5044093;28;21172;-70
2023/04/30 08:38:01;;;;;;;5.93;4.50;;;38.60;1.00;;;;;;5047720;28;20494;-69
2023/04/30 08:40:30;;;;;;;6.30;4.37;;;38.90;1.00;;;;;;5040541;28;20485;-69
2023/04/30 08:43:04;;;;;;;5.90;4.50;;;38.90;1.00;;;;;;5042608;28;20466;-68
2023/04/30 08:45:32;;;;;;;5.70;4.10;;;38.90;1.00;;;;;;5040653;28;20462;-69
2023/04/30 08:47:59;;;;;;;5.90;3.73;;;39.70;1.00;;;;;;5045597;28;21027;-67
2023/04/30 08:50:26;;;;;;;6.53;4.63;;;40.20;1.00;;;;;;5040276;28;20465;-67
2023/04/30 08:52:55;;;;;;;5.10;3.73;;;40.00;1.00;;;;;;5043752;28;20645;-68
2023/04/30 08:55:22;;;;;;;5.10;3.73;;;40.10;1.00;;;;;;5042255;28;20531;-69
2023/04/30 08:57:49;;;;;;;5.93;4.00;;;38.90;1.00;;;;;;5041142;28;20563;-66
2023/04/30 09:00:15;;;;;;;6.77;4.63;;;36.80;1.00;;;;;;5042227;28;20463;-69
2023/04/30 09:02:43;;;;;;;6.10;4.60;;;34.00;1.00;;;;;;5042915;28;20460;-68
2023/04/30 09:05:11;;;;;;;6.50;4.43;;;31.70;1.00;;;;;;5040341;28;20466;-67
2023/04/30 09:07:41;;;;;;;6.53;4.10;;;29.90;1.00;;;;;;5038683;28;20565;-67
2023/04/30 09:10:16;;;;;;;5.53;3.10;;;29.80;1.00;;;;;;5075491;23;20461;-68
2023/04/30 09:12:44;;;;;;;5.53;3.73;;;29.50;1.00;;;;;;5055144;28;20551;-69
2023/04/30 09:15:12;;;;;;;7.20;4.03;;;28.20;1.00;;;;;;5061935;28;20493;-67
2023/04/30 09:17:39;;;;;;;5.47;4.10;;;27.00;1.00;;;;;;5056170;28;20461;-67
2023/04/30 09:20:10;;;;;;;7.50;5.23;;;25.60;1.00;;;;;;5059764;28;20465;-68
2023/04/30 09:22:38;;;;;;;6.20;4.50;;;24.70;1.00;;;;;;5041028;28;20458;-63
2023/04/30 09:25:06;;;;;;;6.73;4.33;;;23.80;1.00;;;;;;5056498;22;20449;-73
2023/04/30 09:27:35;;;;;;;6.00;4.20;;;23.10;1.00;;;;;;5058944;28;20546;-70
2023/04/30 09:30:02;;;;;;;7.77;4.00;;;22.70;1.00;;;;;;5064448;28;20476;-71
2023/04/30 09:32:29;;;;;;;6.20;4.30;;;22.50;1.00;;;;;;5040832;28;20836;-71
2023/04/30 09:34:55;;;;;;;5.97;3.60;;;22.30;1.00;;;;;;5044706;28;20481;-70
2023/04/30 09:37:22;;;;;;;5.90;3.70;;;21.70;1.00;;;;;;5043444;28;20499;-70
2023/04/30 09:39:51;;;;;;;7.10;3.70;;;20.90;1.00;;;;;;5037639;28;20470;-69
2023/04/30 09:42:18;;;;;;;6.03;3.70;;;20.30;1.20;;;;;;5033017;28;20944;-68
2023/04/30 09:44:47;;;;;;;6.20;4.00;;;20.00;1.80;;;;;;5040762;28;20458;-68
2023/04/30 09:47:16;;;;;;;7.40;4.13;;;19.60;2.70;;;;;;5043058;28;20458;-67
2023/04/30 09:49:44;;;;;;;6.83;4.40;;;19.30;3.90;;;;;;5040650;28;20462;-70
2023/04/30 09:52:12;;;;;;;6.93;4.50;;;19.10;4.50;;;;;;5040333;28;20485;-69
2023/04/30 09:54:39;;;;;;;8.27;5.20;;;18.80;5.30;;;;;;5039797;28;20500;-70
2023/04/30 09:57:09;;;;;;;7.23;5.50;;;18.70;5.70;;;;;;5041816;28;21052;-71
2023/04/30 09:59:38;;;;;;;7.27;4.77;;;18.90;6.00;;;;;;5038884;28;20485;-70
2023/04/30 10:02:07;;;;;;;8.13;5.00;;;19.00;6.20;;;;;;5039923;28;20575;-67
2023/04/30 10:04:36;;;;;;;6.70;5.23;;;18.90;6.60;;;;;;5030874;28;20497;-67
2023/04/30 10:07:06;;;;;;;8.37;5.00;;;18.90;6.50;;;;;;5036610;28;20498;-67
2023/04/30 10:09:39;;;;;;;9.97;6.50;;;19.00;6.60;;;;;;5033684;28;20462;-68
2023/04/30 10:12:11;;;;;;;6.57;3.80;;;19.00;6.60;;;;;;5040210;28;20493;-69
2023/04/30 10:14:38;;;;;;;7.37;4.27;;;19.10;5.80;;;;;;5033428;28;20469;-68
2023/04/30 10:17:13;;;;;;;7.37;4.13;;;19.20;4.50;;;;;;5034324;28;21039;-68
2023/04/30 10:19:46;;;;;;;6.13;3.90;;;19.00;4.90;;;;;;5049678;28;20512;-68
2023/04/30 10:22:14;;;;;;;7.20;4.40;;;18.80;5.60;;;;;;5047821;28;20456;-68
2023/04/30 10:24:43;;;;;;;10.33;4.27;;;18.70;6.30;;;;;;5043107;28;20466;-69
2023/04/30 10:27:10;;;;;;;7.37;4.23;;;18.70;6.10;;;;;;5047524;28;20519;-68
2023/04/30 10:29:37;;;;;;;14.67;5.00;;;18.70;6.20;;;;;;5048103;28;21000;-68
2023/04/30 10:32:05;;;;;;;10.60;3.67;;;18.90;6.20;;;;;;5046053;28;20469;-68
2023/04/30 10:34:44;;;;;;;6.90;4.00;;;19.00;5.20;;;;;;5044351;28;20462;-68
2023/04/30 10:37:17;;;;;;;9.53;4.20;;;19.10;5.00;;;;;;5046594;28;20461;-69
2023/04/30 10:39:44;;;;;;;6.57;4.10;;;19.20;5.20;;;;;;5046640;28;20462;-69
2023/04/30 10:42:12;;;;;;;5.70;3.67;;;19.20;5.10;;;;;;5047762;28;20500;-68
2023/04/30 10:44:39;;;;;;;6.17;3.87;;;19.30;4.80;;;;;;5033969;28;20536;-69
2023/04/30 10:47:07;;;;;;;6.60;3.90;;;19.50;5.00;;;;;;5046339;28;20469;-68
2023/04/30 10:49:36;;;;;;;5.70;3.67;;;19.70;4.40;;;;;;5043981;28;20461;-68
2023/04/30 10:52:04;;;;;;;6.40;3.73;;;19.70;3.60;;;;;;5037632;28;20482;-69
2023/04/30 10:54:33;;;;;;;5.47;3.27;;;19.60;3.60;;;;;;5046493;28;20485;-68
2023/04/30 10:57:11;;;;;;;6.63;4.07;;;19.60;4.30;;;;;;5040926;28;20561;-69
2023/04/30 10:59:38;;;;;;;6.80;4.10;;;19.70;4.10;;;;;;5041654;28;20467;-68
2023/04/30 11:02:05;;;;;;;8.73;3.63;;;19.40;4.30;;;;;;5038872;28;20482;-68
2023/04/30 11:04:32;;;;;;;6.23;4.30;;;19.30;4.80;;;;;;5040432;28;20498;-67
2023/04/30 11:07:09;;;;;;;6.00;3.90;;;19.20;5.40;;;;;;5040662;28;20557;-69
2023/04/30 11:09:38;;;;;;;5.53;3.50;;;19.20;5.50;;;;;;5047564;28;20466;-69
2023/04/30 11:12:11;;;;;;;6.30;3.70;;;19.00;4.90;;;;;;5043827;28;20497;-70
2023/04/30 11:14:41;;;;;;;6.00;3.77;;;18.80;5.90;;;;;;5045778;28;20470;-70
2023/04/30 11:17:10;;;;;;;8.13;4.37;;;18.80;5.30;;;;;;5042617;28;20461;-70
2023/04/30 11:19:46;;;;;;;5.60;3.43;;;18.90;5.20;;;;;;5042096;28;20458;-70
2023/04/30 11:22:19;;;;;;;7.10;4.73;;;18.90;5.60;;;;;;5039724;28;20458;-70
2023/04/30 11:24:53;;;;;;;5.60;3.27;;;18.90;5.10;;;;;;5038346;28;20549;-69
2023/04/30 11:27:21;;;;;;;6.43;3.63;;;18.50;5.40;;;;;;5036060;28;20843;-69
2023/04/30 11:29:50;;;;;;;8.30;3.87;;;18.30;6.60;;;;;;5039868;28;20523;-70
2023/04/30 11:32:18;;;;;;;9.43;5.60;;;18.30;6.70;;;;;;5036802;28;20482;-69
2023/04/30 11:34:45;;;;;;;6.00;3.70;;;18.40;6.80;;;;;;5039319;28;20485;-69
2023/04/30 11:37:14;;;;;;;6.77;3.50;;;18.50;6.30;;;;;;5039671;28;20470;-69
2023/04/30 11:39:43;;;;;;;6.23;4.00;;;18.40;6.30;;;;;;5037981;28;21011;-69
2023/04/30 11:42:10;;;;;;;6.20;4.20;;;18.40;7.90;;;;;;5036920;28;20497;-69
2023/04/30 11:44:37;;;;;;;6.50;4.07;;;18.30;6.90;;;;;;5035562;28;20531;-69
2023/04/30 11:47:04;;;;;;;6.87;3.80;;;18.20;7.60;;;;;;5037604;28;20806;-69
2023/04/30 11:49:32;;;;;;;6.00;3.70;;;18.20;8.10;;;;;;5038631;28;20643;-69
2023/04/30 11:51:59;;;;;;;6.67;3.83;;;18.10;7.70;;;;;;5037770;28;20486;-70
2023/04/30 11:54:26;;;;;;;5.80;3.60;;;18.00;7.10;;;;;;5038240;28;20887;-70
2023/04/30 11:57:01;;;;;;;5.47;3.60;;;18.10;7.80;;;;;;5036066;28;20467;-69
2023/04/30 11:59:27;;;;;;;7.10;4.30;;;18.20;7.50;;;;;;5036965;28;20474;-70
2023/04/30 12:01:54;;;;;;;8.50;4.30;;;18.30;7.40;;;;;;5040058;28;20515;-69
2023/04/30 12:04:21;;;;;;;19.10;10.67;;;18.40;7.30;;;;;;5038795;28;20486;-69
2023/04/30 12:06:48;;;;;;;5.60;3.77;;;18.60;7.00;;;;;;5036775;28;20995;-69
2023/04/30 12:09:15;;;;;;;5.90;3.60;;;18.80;6.80;;;;;;5037066;28;21050;-69
2023/04/30 12:11:42;;;;;;;6.87;4.33;;;18.80;6.20;;;;;;5037971;28;20485;-69
2023/04/30 12:14:11;;;;;;;6.60;3.50;;;18.90;6.90;;;;;;5034814;28;20473;-69
2023/04/30 12:16:44;;;;;;;5.30;3.50;;;19.10;6.60;;;;;;5038621;28;20474;-69
2023/04/30 12:19:11;;;;;;;7.20;3.50;;;19.30;5.70;;;;;;5039637;28;20814;-70
2023/04/30 12:21:39;;;;;;;7.23;4.07;;;19.20;5.70;;;;;;5036643;28;20520;-69
2023/04/30 12:24:06;;;;;;;5.60;3.43;;;19.30;5.40;;;;;;5040709;28;20485;-70
2023/04/30 12:26:37;;;;;;;5.67;3.70;;;19.20;5.00;;;;;;5035929;28;20478;-70
2023/04/30 12:29:05;;;;;;;6.00;3.30;;;19.10;5.30;;;;;;5037347;28;20553;-70
2023/04/30 12:31:33;;;;;;;5.83;3.10;;;19.10;5.60;;;;;;5036598;28;20555;-69
2023/04/30 12:34:04;;;;;;;5.27;3.30;;;19.10;5.50;;;;;;5038277;28;20561;-70
2023/04/30 12:36:32;;;;;;;5.10;3.03;;;19.10;5.10;;;;;;5036694;28;20556;-70
2023/04/30 12:39:17;;;;;;;5.47;3.03;;;19.10;5.70;;;;;;5037045;28;20517;-69
2023/04/30 12:41:45;;;;;;;7.43;3.27;;;19.00;5.50;;;;;;5036539;28;20486;-69
2023/04/30 12:44:20;;;;;;;5.03;3.10;;;19.00;5.50;;;;;;5038967;28;20469;-70
2023/04/30 12:46:48;;;;;;;6.87;4.07;;;18.90;5.70;;;;;;5038418;28;20461;-69
2023/04/30 12:49:25;;;;;;;5.70;2.97;;;18.60;4.80;;;;;;5040306;28;20478;-69